createdAt,value
2023-04-10T00:00:35.331Z,79.47
2023-04-10T00:01:35.395Z,79.67
2023-04-10T00:02:35.481Z,79.71
2023-04-10T00:03:35.459Z,79.91
2023-04-10T00:04:35.460Z,80.22
2023-04-10T00:05:35.298Z,80.64
2023-04-10T00:06:35.339Z,80.64
2023-04-10T00:07:35.279Z,80.74
2023-04-10T00:08:35.304Z,80.95
2023-04-10T00:09:35.233Z,80.91
2023-04-10T00:10:35.249Z,80.71
2023-04-10T00:11:35.218Z,80.60
2023-04-10T00:12:35.233Z,80.19
2023-04-10T00:13:35.238Z,79.77
2023-04-10T00:14:35.237Z,79.81
2023-04-10T00:15:35.182Z,79.88
2023-04-10T00:16:35.207Z,79.81
2023-04-10T00:17:35.205Z,79.71
2023-04-10T00:18:35.153Z,80.43
2023-04-10T00:19:35.170Z,80.54
2023-04-10T00:20:35.129Z,80.64
2023-04-10T00:21:35.107Z,80.54
2023-04-10T00:22:35.081Z,80.43
2023-04-10T00:23:35.136Z,80.54
2023-04-10T00:24:35.086Z,80.43
2023-04-10T00:25:35.117Z,80.22
2023-04-10T00:26:35.059Z,80.02
2023-04-10T00:27:35.125Z,80.22
2023-04-10T00:28:35.055Z,80.02
2023-04-10T00:29:35.006Z,79.91
2023-04-10T00:30:35.036Z,80.33
2023-04-10T00:31:35.055Z,80.47
2023-04-10T00:32:35.003Z,80.57
2023-04-10T00:33:34.992Z,80.78
2023-04-10T00:34:34.946Z,80.57
2023-04-10T00:35:34.973Z,80.36
2023-04-10T00:36:34.922Z,80.36
2023-04-10T00:37:34.925Z,80.26
2023-04-10T00:38:34.938Z,80.36
2023-04-10T00:39:34.881Z,80.26
2023-04-10T00:40:34.932Z,80.09
2023-04-10T00:41:34.904Z,80.40
2023-04-10T00:42:34.878Z,80.30
2023-04-10T00:43:34.876Z,80.30
2023-04-10T00:44:34.833Z,80.82
2023-04-10T00:45:34.952Z,81.02
2023-04-10T00:46:34.821Z,81.02
2023-04-10T00:47:34.849Z,80.92
2023-04-10T00:48:34.804Z,81.34
2023-04-10T00:49:34.796Z,81.65
2023-04-10T00:50:34.777Z,81.75
2023-04-10T00:51:34.798Z,81.65
2023-04-10T00:52:34.745Z,81.54
2023-04-10T00:53:34.754Z,81.44
2023-04-10T00:54:34.737Z,81.65
2023-04-10T00:55:34.741Z,81.96
2023-04-10T00:56:34.716Z,81.85
2023-04-10T00:57:34.717Z,81.89
2023-04-10T00:58:34.669Z,82.06
2023-04-10T00:59:34.676Z,81.99
2023-04-10T01:00:34.662Z,82.20
2023-04-10T01:01:34.759Z,82.20
2023-04-10T01:02:34.732Z,82.31
2023-04-10T01:03:34.759Z,82.20
2023-04-10T01:04:34.798Z,81.99
2023-04-10T01:05:34.610Z,82.10
2023-04-10T01:06:34.580Z,82.10
2023-04-10T01:07:34.607Z,82.20
2023-04-10T01:08:34.563Z,82.10
2023-04-10T01:09:34.540Z,81.99
2023-04-10T01:10:34.528Z,81.99
2023-04-10T01:11:34.548Z,81.89
2023-04-10T01:12:34.554Z,81.68
2023-04-10T01:13:34.550Z,81.93
2023-04-10T01:14:34.472Z,82.14
2023-04-10T01:15:34.497Z,82.34
2023-04-10T01:16:34.525Z,82.34
2023-04-10T01:17:34.450Z,82.45
2023-04-10T01:18:34.469Z,82.55
2023-04-10T01:19:34.440Z,82.55
2023-04-10T01:20:34.430Z,82.76
2023-04-10T01:21:34.426Z,82.90
2023-04-10T01:22:34.404Z,82.86
2023-04-10T01:23:34.365Z,82.97
2023-04-10T01:24:34.353Z,82.86
2023-04-10T01:25:34.426Z,82.76
2023-04-10T01:26:34.358Z,82.45
2023-04-10T01:27:34.333Z,82.14
2023-04-10T01:28:34.324Z,81.93
2023-04-10T01:29:34.304Z,81.87
2023-04-10T01:30:34.317Z,81.97
2023-04-10T01:31:34.338Z,81.87
2023-04-10T01:32:34.321Z,82.28
2023-04-10T01:33:34.291Z,82.59
2023-04-10T01:34:34.293Z,82.70
2023-04-10T01:35:34.254Z,82.80
2023-04-10T01:36:34.233Z,82.70
2023-04-10T01:37:34.210Z,82.70
2023-04-10T01:38:34.221Z,82.59
2023-04-10T01:39:34.247Z,82.39
2023-04-10T01:40:34.191Z,82.39
2023-04-10T01:41:34.211Z,82.59
2023-04-10T01:42:34.159Z,82.59
2023-04-10T01:43:34.148Z,82.59
2023-04-10T01:44:34.180Z,82.80
2023-04-10T01:45:34.120Z,82.90
2023-04-10T01:46:34.144Z,83.11
2023-04-10T01:47:34.172Z,83.22
2023-04-10T01:48:34.098Z,83.11
2023-04-10T01:49:34.118Z,83.32
2023-04-10T01:50:34.086Z,83.11
2023-04-10T01:51:34.100Z,83.11
2023-04-10T01:52:34.095Z,82.90
2023-04-10T01:53:34.023Z,82.90
2023-04-10T01:54:34.083Z,83.01
2023-04-10T01:55:34.041Z,83.11
2023-04-10T01:56:34.028Z,83.11
2023-04-10T01:57:34.024Z,82.80
2023-04-10T01:58:33.978Z,82.70
2023-04-10T01:59:33.978Z,82.94
2023-04-10T02:00:34.005Z,82.84
2023-04-10T02:01:34.035Z,82.73
2023-04-10T02:02:34.312Z,82.84
2023-04-10T02:03:34.122Z,83.15
2023-04-10T02:04:34.062Z,83.36
2023-04-10T02:05:33.912Z,83.36
2023-04-10T02:06:33.934Z,83.46
2023-04-10T02:07:33.900Z,83.46
2023-04-10T02:08:33.852Z,83.25
2023-04-10T02:09:33.834Z,83.25
2023-04-10T02:10:33.841Z,83.36
2023-04-10T02:11:33.892Z,83.25
2023-04-10T02:12:33.848Z,83.15
2023-04-10T02:13:33.812Z,83.04
2023-04-10T02:14:33.843Z,83.29
2023-04-10T02:15:33.821Z,83.39
2023-04-10T02:16:33.820Z,83.39
2023-04-10T02:17:33.815Z,83.60
2023-04-10T02:18:33.769Z,83.81
2023-04-10T02:19:33.741Z,83.81
2023-04-10T02:20:33.707Z,83.70
2023-04-10T02:21:33.753Z,83.81
2023-04-10T02:22:33.714Z,83.91
2023-04-10T02:23:33.677Z,84.12
2023-04-10T02:24:33.678Z,84.22
2023-04-10T02:25:33.685Z,84.33
2023-04-10T02:26:33.659Z,84.47
2023-04-10T02:27:33.709Z,84.47
2023-04-10T02:28:33.646Z,84.43
2023-04-10T02:29:33.613Z,84.64
2023-04-10T02:30:33.615Z,84.43
2023-04-10T02:31:33.669Z,84.53
2023-04-10T02:32:33.692Z,84.33
2023-04-10T02:33:33.595Z,83.81
2023-04-10T02:34:33.577Z,84.01
2023-04-10T02:35:33.595Z,84.01
2023-04-10T02:36:33.602Z,83.91
2023-04-10T02:37:33.527Z,83.81
2023-04-10T02:38:33.536Z,83.60
2023-04-10T02:39:33.506Z,83.50
2023-04-10T02:40:33.494Z,83.60
2023-04-10T02:41:33.507Z,83.60
2023-04-10T02:42:33.461Z,83.60
2023-04-10T02:43:33.484Z,83.50
2023-04-10T02:44:33.447Z,83.64
2023-04-10T02:45:33.492Z,83.74
2023-04-10T02:46:33.533Z,83.95
2023-04-10T02:47:33.500Z,84.01
2023-04-10T02:48:33.416Z,83.81
2023-04-10T02:49:33.438Z,83.70
2023-04-10T02:50:33.387Z,83.50
2023-04-10T02:51:33.403Z,82.87
2023-04-10T02:52:33.406Z,82.81
2023-04-10T02:53:33.378Z,82.70
2023-04-10T02:54:33.339Z,83.01
2023-04-10T02:55:33.348Z,83.33
2023-04-10T02:56:33.331Z,83.64
2023-04-10T02:57:33.345Z,83.74
2023-04-10T02:58:33.290Z,83.84
2023-04-10T02:59:33.268Z,83.84
2023-04-10T03:00:33.283Z,83.74
2023-04-10T03:01:33.359Z,83.74
2023-04-10T03:02:33.362Z,83.84
2023-04-10T03:03:33.280Z,83.84
2023-04-10T03:04:33.353Z,83.84
2023-04-10T03:05:33.256Z,83.84
2023-04-10T03:06:33.210Z,83.95
2023-04-10T03:07:33.180Z,84.05
2023-04-10T03:08:33.223Z,84.05
2023-04-10T03:09:33.180Z,83.95
2023-04-10T03:10:33.137Z,83.95
2023-04-10T03:11:33.131Z,84.05
2023-04-10T03:12:33.142Z,84.20
2023-04-10T03:13:33.146Z,84.30
2023-04-10T03:14:33.154Z,84.30
2023-04-10T03:15:33.108Z,84.41
2023-04-10T03:16:33.165Z,84.51
2023-04-10T03:17:33.102Z,84.41
2023-04-10T03:18:33.083Z,84.41
2023-04-10T03:19:33.074Z,84.30
2023-04-10T03:20:33.095Z,84.61
2023-04-10T03:21:33.062Z,84.61
2023-04-10T03:22:33.044Z,84.72
2023-04-10T03:23:33.008Z,84.72
2023-04-10T03:24:33.011Z,84.72
2023-04-10T03:25:33.058Z,84.72
2023-04-10T03:26:32.963Z,84.61
2023-04-10T03:27:32.984Z,84.55
2023-04-10T03:28:32.967Z,84.44
2023-04-10T03:29:32.958Z,84.34
2023-04-10T03:30:32.952Z,84.34
2023-04-10T03:31:32.995Z,84.44
2023-04-10T03:32:32.903Z,84.44
2023-04-10T03:33:32.988Z,84.44
2023-04-10T03:34:32.892Z,84.55
2023-04-10T03:35:32.882Z,84.55
2023-04-10T03:36:32.871Z,84.44
2023-04-10T03:37:32.893Z,84.34
2023-04-10T03:38:32.913Z,84.34
2023-04-10T03:39:32.861Z,84.34
2023-04-10T03:40:32.839Z,84.44
2023-04-10T03:41:32.807Z,84.44
2023-04-10T03:42:32.828Z,84.55
2023-04-10T03:43:32.838Z,84.75
2023-04-10T03:44:32.826Z,84.86
2023-04-10T03:45:32.789Z,85.06
2023-04-10T03:46:32.767Z,85.28
2023-04-10T03:47:32.757Z,85.38
2023-04-10T03:48:32.776Z,85.38
2023-04-10T03:49:32.740Z,85.28
2023-04-10T03:50:32.690Z,85.06
2023-04-10T03:51:32.706Z,84.86
2023-04-10T03:52:32.700Z,84.96
2023-04-10T03:53:34.040Z,84.96
2023-04-10T03:54:32.665Z,84.75
2023-04-10T03:55:32.686Z,84.69
2023-04-10T03:56:32.655Z,84.80
2023-04-10T03:57:32.637Z,84.80
2023-04-10T03:58:32.614Z,85.00
2023-04-10T03:59:38.659Z,85.00
2023-04-10T04:00:33.655Z,84.69
2023-04-10T04:01:32.594Z,84.69
2023-04-10T04:02:32.697Z,84.69
2023-04-10T04:03:32.636Z,84.69
2023-04-10T04:04:32.648Z,84.80
2023-04-10T04:05:32.555Z,84.80
2023-04-10T04:06:32.599Z,84.90
2023-04-10T04:07:32.530Z,84.80
2023-04-10T04:08:32.499Z,84.80
2023-04-10T04:09:32.494Z,84.69
2023-04-10T04:10:32.465Z,84.48
2023-04-10T04:11:32.533Z,84.59
2023-04-10T04:12:32.463Z,84.69
2023-04-10T04:13:32.483Z,84.69
2023-04-10T04:14:32.466Z,84.80
2023-04-10T04:15:32.430Z,84.69
2023-04-10T04:16:32.443Z,84.69
2023-04-10T04:17:32.417Z,84.69
2023-04-10T04:18:32.386Z,84.80
2023-04-10T04:19:32.394Z,84.69
2023-04-10T04:20:32.362Z,84.69
2023-04-10T04:21:32.356Z,85.14
2023-04-10T04:22:32.352Z,85.11
2023-04-10T04:23:32.364Z,85.04
2023-04-10T04:24:32.364Z,85.14
2023-04-10T04:25:32.292Z,85.25
2023-04-10T04:26:32.341Z,85.14
2023-04-10T04:27:32.349Z,85.25
2023-04-10T04:28:32.287Z,85.35
2023-04-10T04:29:32.290Z,85.46
2023-04-10T04:30:32.246Z,85.46
2023-04-10T04:31:32.446Z,85.35
2023-04-10T04:32:32.240Z,85.25
2023-04-10T04:33:32.270Z,85.14
2023-04-10T04:34:32.233Z,85.14
2023-04-10T04:35:32.442Z,85.14
2023-04-10T04:36:32.194Z,85.25
2023-04-10T04:37:32.189Z,85.11
2023-04-10T04:38:32.172Z,85.11
2023-04-10T04:39:32.192Z,84.90
2023-04-10T04:40:32.177Z,84.80
2023-04-10T04:41:32.156Z,84.80
2023-04-10T04:42:32.150Z,84.69
2023-04-10T04:43:32.102Z,84.59
2023-04-10T04:44:32.132Z,84.48
2023-04-10T04:45:32.097Z,84.63
2023-04-10T04:46:32.100Z,84.73
2023-04-10T04:47:32.176Z,84.80
2023-04-10T04:48:32.053Z,84.69
2023-04-10T04:49:32.078Z,84.59
2023-04-10T04:50:32.030Z,84.59
2023-04-10T04:51:32.039Z,84.48
2023-04-10T04:52:32.029Z,84.59
2023-04-10T04:53:32.002Z,84.48
2023-04-10T04:54:32.008Z,84.69
2023-04-10T04:55:32.022Z,84.69
2023-04-10T04:56:31.996Z,84.69
2023-04-10T04:57:31.943Z,84.48
2023-04-10T04:58:31.954Z,84.27
2023-04-10T04:59:31.958Z,84.27
2023-04-10T05:00:31.974Z,84.17
2023-04-10T05:01:31.980Z,83.96
2023-04-10T05:02:31.992Z,83.86
2023-04-10T05:03:32.065Z,83.82
2023-04-10T05:04:31.876Z,83.82
2023-04-10T05:05:31.866Z,83.72
2023-04-10T05:06:31.940Z,83.61
2023-04-10T05:07:31.840Z,83.51
2023-04-10T05:08:31.837Z,83.40
2023-04-10T05:09:31.841Z,82.99
2023-04-10T05:10:31.811Z,82.78
2023-04-10T05:11:31.831Z,82.89
2023-04-10T05:12:31.823Z,82.89
2023-04-10T05:13:31.790Z,82.99
2023-04-10T05:14:31.756Z,82.99
2023-04-10T05:15:31.821Z,82.99
2023-04-10T05:16:31.735Z,82.99
2023-04-10T05:17:31.776Z,82.99
2023-04-10T05:18:31.803Z,82.99
2023-04-10T05:19:31.682Z,83.09
2023-04-10T05:20:31.722Z,82.99
2023-04-10T05:21:31.708Z,83.09
2023-04-10T05:22:31.686Z,83.09
2023-04-10T05:23:31.652Z,82.84
2023-04-10T05:24:31.666Z,82.64
2023-04-10T05:25:31.666Z,82.64
2023-04-10T05:26:31.625Z,82.53
2023-04-10T05:27:31.754Z,82.43
2023-04-10T05:28:31.634Z,82.43
2023-04-10T05:29:31.607Z,82.32
2023-04-10T05:30:31.597Z,82.22
2023-04-10T05:31:31.729Z,82.12
2023-04-10T05:32:31.583Z,82.22
2023-04-10T05:33:31.594Z,82.22
2023-04-10T05:34:31.561Z,82.08
2023-04-10T05:35:31.582Z,82.08
2023-04-10T05:36:31.505Z,81.98
2023-04-10T05:37:31.552Z,81.87
2023-04-10T05:38:31.503Z,81.67
2023-04-10T05:39:31.497Z,81.56
2023-04-10T05:40:31.460Z,81.56
2023-04-10T05:41:31.472Z,81.46
2023-04-10T05:42:31.468Z,81.32
2023-04-10T05:43:31.445Z,81.01
2023-04-10T05:44:31.431Z,80.80
2023-04-10T05:45:31.443Z,80.69
2023-04-10T05:46:31.515Z,80.49
2023-04-10T05:47:31.451Z,80.35
2023-04-10T05:48:31.399Z,80.24
2023-04-10T05:49:31.374Z,80.04
2023-04-10T05:50:31.377Z,80.04
2023-04-10T05:51:31.341Z,79.93
2023-04-10T05:52:31.329Z,79.72
2023-04-10T05:53:31.360Z,79.61
2023-04-10T05:54:31.304Z,79.48
2023-04-10T05:55:31.325Z,79.27
2023-04-10T05:56:31.326Z,79.38
2023-04-10T05:57:31.292Z,79.27
2023-04-10T05:58:31.298Z,79.27
2023-04-10T05:59:31.445Z,79.17
2023-04-10T06:00:31.235Z,78.96
2023-04-10T06:01:31.316Z,79.06
2023-04-10T06:02:31.519Z,79.17
2023-04-10T06:03:31.446Z,79.17
2023-04-10T06:04:31.326Z,78.92
2023-04-10T06:05:31.175Z,79.06
2023-04-10T06:06:31.162Z,79.06
2023-04-10T06:07:31.241Z,79.17
2023-04-10T06:08:31.169Z,79.27
2023-04-10T06:09:31.112Z,79.17
2023-04-10T06:10:31.180Z,79.13
2023-04-10T06:11:31.102Z,79.03
2023-04-10T06:12:31.117Z,78.92
2023-04-10T06:13:31.081Z,78.82
2023-04-10T06:14:31.102Z,78.82
2023-04-10T06:15:31.083Z,78.92
2023-04-10T06:16:31.066Z,78.61
2023-04-10T06:17:31.088Z,78.37
2023-04-10T06:18:31.042Z,78.27
2023-04-10T06:19:31.015Z,78.27
2023-04-10T06:20:31.029Z,78.37
2023-04-10T06:21:30.999Z,78.37
2023-04-10T06:22:31.004Z,78.27
2023-04-10T06:23:30.958Z,78.23
2023-04-10T06:24:30.952Z,78.12
2023-04-10T06:25:30.961Z,78.12
2023-04-10T06:26:30.965Z,77.92
2023-04-10T06:27:31.039Z,77.78
2023-04-10T06:28:30.902Z,77.78
2023-04-10T06:29:30.898Z,77.57
2023-04-10T06:30:31.122Z,77.47
2023-04-10T06:31:30.960Z,77.26
2023-04-10T06:32:30.947Z,77.26
2023-04-10T06:33:30.880Z,77.12
2023-04-10T06:34:30.848Z,77.01
2023-04-10T06:35:30.914Z,76.91
2023-04-10T06:36:30.813Z,76.81
2023-04-10T06:37:30.856Z,76.61
2023-04-10T06:38:30.794Z,76.61
2023-04-10T06:39:30.790Z,76.57
2023-04-10T06:40:30.780Z,76.67
2023-04-10T06:41:30.762Z,76.78
2023-04-10T06:42:30.757Z,76.78
2023-04-10T06:43:30.911Z,76.78
2023-04-10T06:44:30.707Z,76.78
2023-04-10T06:45:30.722Z,76.67
2023-04-10T06:46:30.733Z,76.43
2023-04-10T06:47:30.738Z,76.43
2023-04-10T06:48:30.683Z,76.22
2023-04-10T06:49:30.694Z,75.88
2023-04-10T06:50:33.263Z,75.67
2023-04-10T06:51:30.628Z,75.67
2023-04-10T06:52:30.638Z,75.46
2023-04-10T06:53:30.606Z,75.36
2023-04-10T06:54:30.610Z,75.36
2023-04-10T06:55:30.621Z,75.12
2023-04-10T06:56:30.601Z,74.91
2023-04-10T06:57:30.590Z,74.67
2023-04-10T06:58:30.574Z,74.46
2023-04-10T06:59:30.555Z,74.46
2023-04-10T07:00:30.546Z,74.15
2023-04-10T07:01:30.566Z,73.64
2023-04-10T07:02:30.616Z,73.60
2023-04-10T07:03:30.529Z,73.50
2023-04-10T07:04:30.519Z,73.50
2023-04-10T07:05:30.498Z,73.26
2023-04-10T07:06:30.461Z,72.95
2023-04-10T07:07:30.486Z,72.71
2023-04-10T07:08:30.511Z,72.40
2023-04-10T07:09:30.486Z,71.95
2023-04-10T07:10:30.423Z,71.55
2023-04-10T07:11:30.453Z,71.00
2023-04-10T07:12:30.461Z,70.89
2023-04-10T07:13:30.459Z,70.21
2023-04-10T07:14:30.374Z,69.56
2023-04-10T07:15:30.412Z,68.26
2023-04-10T07:16:30.470Z,66.28
2023-04-10T07:17:30.446Z,63.47
2023-04-10T07:18:30.308Z,59.41
2023-04-10T07:19:30.375Z,56.12
2023-04-10T07:20:30.364Z,52.78
2023-04-10T07:21:30.277Z,51.70
2023-04-10T07:22:30.319Z,49.80
2023-04-10T07:23:30.285Z,47.39
2023-04-10T07:24:30.300Z,46.14
2023-04-10T07:25:30.257Z,45.29
2023-04-10T07:26:30.332Z,44.35
2023-04-10T07:27:30.224Z,43.63
2023-04-10T07:28:30.206Z,44.21
2023-04-10T07:29:30.265Z,43.77
2023-04-10T07:30:30.191Z,42.66
2023-04-10T07:31:30.280Z,42.35
2023-04-10T07:32:30.242Z,42.15
2023-04-10T07:33:30.186Z,42.15
2023-04-10T07:34:30.185Z,42.47
2023-04-10T07:35:30.175Z,42.27
2023-04-10T07:36:30.147Z,42.05
2023-04-10T07:37:30.155Z,41.73
2023-04-10T07:38:30.114Z,41.93
2023-04-10T07:39:30.078Z,40.91
2023-04-10T07:40:30.170Z,40.34
2023-04-10T07:41:30.110Z,40.62
2023-04-10T07:42:30.075Z,38.98
2023-04-10T07:43:30.161Z,38.66
2023-04-10T07:44:30.040Z,38.86
2023-04-10T07:45:30.033Z,38.66
2023-04-10T07:46:30.031Z,38.34
2023-04-10T07:47:30.065Z,37.70
2023-04-10T07:48:29.991Z,37.00
2023-04-10T07:49:30.043Z,37.20
2023-04-10T07:50:29.975Z,36.80
2023-04-10T07:51:29.987Z,37.22
2023-04-10T07:52:29.937Z,38.10
2023-04-10T07:53:30.015Z,36.38
2023-04-10T07:54:29.951Z,36.07
2023-04-10T07:55:29.980Z,36.13
2023-04-10T07:56:29.895Z,35.81
2023-04-10T07:57:29.898Z,35.06
2023-04-10T07:58:29.945Z,34.33
2023-04-10T07:59:29.875Z,33.63
2023-04-10T08:00:29.891Z,33.81
2023-04-10T08:01:29.895Z,33.12
2023-04-10T08:02:29.953Z,33.33
2023-04-10T08:03:29.893Z,33.53
2023-04-10T08:04:30.193Z,33.95
2023-04-10T08:05:29.884Z,34.26
2023-04-10T08:06:29.802Z,34.78
2023-04-10T08:07:29.803Z,34.91
2023-04-10T08:08:29.779Z,35.41
2023-04-10T08:09:29.800Z,35.31
2023-04-10T08:10:29.759Z,35.01
2023-04-10T08:11:29.733Z,35.51
2023-04-10T08:12:29.759Z,34.89
2023-04-10T08:13:29.700Z,34.99
2023-04-10T08:14:29.735Z,34.28
2023-04-10T08:15:29.741Z,34.26
2023-04-10T08:16:29.717Z,34.13
2023-04-10T08:17:29.758Z,32.80
2023-04-10T08:18:29.680Z,32.47
2023-04-10T08:19:29.672Z,31.74
2023-04-10T08:20:29.655Z,31.15
2023-04-10T08:21:29.618Z,31.24
2023-04-10T08:22:29.645Z,30.94
2023-04-10T08:23:29.623Z,31.43
2023-04-10T08:24:29.580Z,31.12
2023-04-10T08:25:29.597Z,31.43
2023-04-10T08:26:29.578Z,30.62
2023-04-10T08:27:29.602Z,30.96
2023-04-10T08:28:29.617Z,32.18
2023-04-10T08:29:29.534Z,32.29
2023-04-10T08:30:29.536Z,30.28
2023-04-10T08:31:29.626Z,30.29
2023-04-10T08:32:29.535Z,29.99
2023-04-10T08:33:29.486Z,30.31
2023-04-10T08:34:29.523Z,30.52
2023-04-10T08:35:29.505Z,30.82
2023-04-10T08:36:29.500Z,30.41
2023-04-10T08:37:29.507Z,30.42
2023-04-10T08:38:29.444Z,31.15
2023-04-10T08:39:29.422Z,31.43
2023-04-10T08:40:29.482Z,30.69
2023-04-10T08:41:29.417Z,30.31
2023-04-10T08:42:29.389Z,29.99
2023-04-10T08:43:29.399Z,29.99
2023-04-10T08:44:29.404Z,30.27
2023-04-10T08:45:29.376Z,29.39
2023-04-10T08:46:29.394Z,30.11
2023-04-10T08:47:29.348Z,30.51
2023-04-10T08:48:29.346Z,30.61
2023-04-10T08:49:29.328Z,30.42
2023-04-10T08:50:29.317Z,30.63
2023-04-10T08:51:29.350Z,31.78
2023-04-10T08:52:29.283Z,32.17
2023-04-10T08:53:29.312Z,31.76
2023-04-10T08:54:29.258Z,31.67
2023-04-10T08:55:29.308Z,31.67
2023-04-10T08:56:29.277Z,31.90
2023-04-10T08:57:29.214Z,32.70
2023-04-10T08:58:29.240Z,32.62
2023-04-10T08:59:29.217Z,32.93
2023-04-10T09:00:29.235Z,33.33
2023-04-10T09:01:29.258Z,33.12
2023-04-10T09:02:29.394Z,33.03
2023-04-10T09:03:29.349Z,33.11
2023-04-10T09:04:29.346Z,32.58
2023-04-10T09:05:29.196Z,32.26
2023-04-10T09:06:29.157Z,31.82
2023-04-10T09:07:29.126Z,30.99
2023-04-10T09:08:29.126Z,30.41
2023-04-10T09:09:29.124Z,30.61
2023-04-10T09:10:29.077Z,31.24
2023-04-10T09:11:29.127Z,31.12
2023-04-10T09:12:29.089Z,30.71
2023-04-10T09:13:29.057Z,31.01
2023-04-10T09:14:29.066Z,31.01
2023-04-10T09:15:29.037Z,30.48
2023-04-10T09:16:29.040Z,30.58
2023-04-10T09:17:29.151Z,30.16
2023-04-10T09:18:28.985Z,30.49
2023-04-10T09:19:29.007Z,30.40
2023-04-10T09:20:28.991Z,30.49
2023-04-10T09:21:28.986Z,31.01
2023-04-10T09:22:28.974Z,31.10
2023-04-10T09:23:29.082Z,31.09
2023-04-10T09:24:28.937Z,30.89
2023-04-10T09:25:28.964Z,31.10
2023-04-10T09:26:28.971Z,31.32
2023-04-10T09:27:28.886Z,31.42
2023-04-10T09:28:28.902Z,30.82
2023-04-10T09:29:28.922Z,30.92
2023-04-10T09:30:28.935Z,31.04
2023-04-10T09:31:28.915Z,30.72
2023-04-10T09:32:28.891Z,31.04
2023-04-10T09:33:28.839Z,31.22
2023-04-10T09:34:28.827Z,30.49
2023-04-10T09:35:28.871Z,30.18
2023-04-10T09:36:28.795Z,29.67
2023-04-10T09:37:28.848Z,30.35
2023-04-10T09:38:28.804Z,28.99
2023-04-10T09:39:28.817Z,29.93
2023-04-10T09:40:28.799Z,30.02
2023-04-10T09:41:28.891Z,30.33
2023-04-10T09:42:28.741Z,30.63
2023-04-10T09:43:28.746Z,30.85
2023-04-10T09:44:28.704Z,30.74
2023-04-10T09:45:28.713Z,30.57
2023-04-10T09:46:28.920Z,30.98
2023-04-10T09:47:28.707Z,30.90
2023-04-10T09:48:28.680Z,31.10
2023-04-10T09:49:28.744Z,31.49
2023-04-10T09:50:28.678Z,31.71
2023-04-10T09:51:28.690Z,32.43
2023-04-10T09:52:28.706Z,32.23
2023-04-10T09:53:28.700Z,32.03
2023-04-10T09:54:28.602Z,31.90
2023-04-10T09:55:28.601Z,31.25
2023-04-10T09:56:28.626Z,30.41
2023-04-10T09:57:28.568Z,30.35
2023-04-10T09:58:28.623Z,31.16
2023-04-10T09:59:28.581Z,31.25
2023-04-10T10:00:28.605Z,30.77
2023-04-10T10:01:28.564Z,31.15
2023-04-10T10:02:28.719Z,30.80
2023-04-10T10:03:28.641Z,29.88
2023-04-10T10:04:28.548Z,29.27
2023-04-10T10:05:28.540Z,28.74
2023-04-10T10:06:28.544Z,28.43
2023-04-10T10:07:28.503Z,28.22
2023-04-10T10:08:28.526Z,28.42
2023-04-10T10:09:29.326Z,28.53
2023-04-10T10:10:28.424Z,29.17
2023-04-10T10:11:28.427Z,29.91
2023-04-10T10:12:28.422Z,30.44
2023-04-10T10:13:28.444Z,30.95
2023-04-10T10:14:28.374Z,31.15
2023-04-10T10:15:28.383Z,31.12
2023-04-10T10:16:28.419Z,30.69
2023-04-10T10:17:28.407Z,30.65
2023-04-10T10:18:28.381Z,31.46
2023-04-10T10:19:28.331Z,30.93
2023-04-10T10:20:28.327Z,31.01
2023-04-10T10:21:28.341Z,30.18
2023-04-10T10:22:28.312Z,29.67
2023-04-10T10:23:28.294Z,29.48
2023-04-10T10:24:28.328Z,29.90
2023-04-10T10:25:28.289Z,29.69
2023-04-10T10:26:28.306Z,29.67
2023-04-10T10:27:28.252Z,29.05
2023-04-10T10:28:28.256Z,28.93
2023-04-10T10:29:28.266Z,28.62
2023-04-10T10:30:30.374Z,27.83
2023-04-10T10:31:28.255Z,29.51
2023-04-10T10:32:28.232Z,30.54
2023-04-10T10:33:28.221Z,31.70
2023-04-10T10:34:28.227Z,32.51
2023-04-10T10:35:29.969Z,32.41
2023-04-10T10:36:28.227Z,33.01
2023-04-10T10:37:28.164Z,32.26
2023-04-10T10:38:28.163Z,31.42
2023-04-10T10:39:28.127Z,30.21
2023-04-10T10:40:28.180Z,29.47
2023-04-10T10:41:28.121Z,29.14
2023-04-10T10:42:28.120Z,28.83
2023-04-10T10:43:28.124Z,28.42
2023-04-10T10:44:28.091Z,28.19
2023-04-10T10:45:28.116Z,27.37
2023-04-10T10:46:28.108Z,27.50
2023-04-10T10:47:28.111Z,28.05
2023-04-10T10:48:28.058Z,28.96
2023-04-10T10:49:28.025Z,28.74
2023-04-10T10:50:28.020Z,28.85
2023-04-10T10:51:28.023Z,29.07
2023-04-10T10:52:27.990Z,29.69
2023-04-10T10:53:28.007Z,29.01
2023-04-10T10:54:27.992Z,30.15
2023-04-10T10:55:27.960Z,31.16
2023-04-10T10:56:27.974Z,31.16
2023-04-10T10:57:27.938Z,31.26
2023-04-10T10:58:27.952Z,31.28
2023-04-10T10:59:27.917Z,31.08
2023-04-10T11:00:27.938Z,31.05
2023-04-10T11:01:27.972Z,30.33
2023-04-10T11:02:28.017Z,30.01
2023-04-10T11:03:28.113Z,29.84
2023-04-10T11:04:27.912Z,31.05
2023-04-10T11:05:27.866Z,30.44
2023-04-10T11:06:27.850Z,30.14
2023-04-10T11:07:27.879Z,29.91
2023-04-10T11:08:27.847Z,29.84
2023-04-10T11:09:27.818Z,29.72
2023-04-10T11:10:27.794Z,29.30
2023-04-10T11:11:27.810Z,29.20
2023-04-10T11:12:27.839Z,29.20
2023-04-10T11:13:27.790Z,29.20
2023-04-10T11:14:27.762Z,28.87
2023-04-10T11:15:27.769Z,28.66
2023-04-10T11:16:27.755Z,28.10
2023-04-10T11:17:27.862Z,28.10
2023-04-10T11:18:27.755Z,28.20
2023-04-10T11:19:27.964Z,28.83
2023-04-10T11:20:27.704Z,29.01
2023-04-10T11:21:27.729Z,28.78
2023-04-10T11:22:27.694Z,27.96
2023-04-10T11:23:27.668Z,27.97
2023-04-10T11:24:27.672Z,28.53
2023-04-10T11:25:27.676Z,28.71
2023-04-10T11:26:27.642Z,28.28
2023-04-10T11:27:27.726Z,27.97
2023-04-10T11:28:27.641Z,28.17
2023-04-10T11:29:27.629Z,28.47
2023-04-10T11:30:27.605Z,28.39
2023-04-10T11:31:27.636Z,28.60
2023-04-10T11:32:27.596Z,28.28
2023-04-10T11:33:27.567Z,28.47
2023-04-10T11:34:27.599Z,27.85
2023-04-10T11:35:27.595Z,27.62
2023-04-10T11:36:27.573Z,27.11
2023-04-10T11:37:27.526Z,26.25
2023-04-10T11:38:27.560Z,26.57
2023-04-10T11:39:27.541Z,27.39
2023-04-10T11:40:27.500Z,27.59
2023-04-10T11:41:27.517Z,28.00
2023-04-10T11:42:27.512Z,27.89
2023-04-10T11:43:27.489Z,27.30
2023-04-10T11:44:27.481Z,27.49
2023-04-10T11:45:27.455Z,27.73
2023-04-10T11:46:27.516Z,28.22
2023-04-10T11:47:27.465Z,27.80
2023-04-10T11:48:27.420Z,27.26
2023-04-10T11:49:27.427Z,26.65
2023-04-10T11:50:27.387Z,26.45
2023-04-10T11:51:27.382Z,26.76
2023-04-10T11:52:27.393Z,25.99
2023-04-10T11:53:27.366Z,26.82
2023-04-10T11:54:27.371Z,26.82
2023-04-10T11:55:27.399Z,26.83
2023-04-10T11:56:27.374Z,26.70
2023-04-10T11:57:27.325Z,26.52
2023-04-10T11:58:27.327Z,26.72
2023-04-10T11:59:27.290Z,26.43
2023-04-10T12:00:27.287Z,26.14
2023-04-10T12:01:27.342Z,25.81
2023-04-10T12:02:27.401Z,25.60
2023-04-10T12:03:27.366Z,25.27
2023-04-10T12:04:27.469Z,25.49
2023-04-10T12:05:27.227Z,25.50
2023-04-10T12:06:27.236Z,26.12
2023-04-10T12:07:27.265Z,26.84
2023-04-10T12:08:27.195Z,27.27
2023-04-10T12:09:27.232Z,27.75
2023-04-10T12:10:27.204Z,27.34
2023-04-10T12:11:27.205Z,27.04
2023-04-10T12:12:27.170Z,27.86
2023-04-10T12:13:27.188Z,28.07
2023-04-10T12:14:27.142Z,28.59
2023-04-10T12:15:27.170Z,29.65
2023-04-10T12:16:27.146Z,30.91
2023-04-10T12:17:27.135Z,32.24
2023-04-10T12:18:27.110Z,33.15
2023-04-10T12:19:27.115Z,33.15
2023-04-10T12:20:27.087Z,32.75
2023-04-10T12:21:27.091Z,32.95
2023-04-10T12:22:27.066Z,32.84
2023-04-10T12:23:27.028Z,32.23
2023-04-10T12:24:27.065Z,32.43
2023-04-10T12:25:27.065Z,32.84
2023-04-10T12:26:27.011Z,33.02
2023-04-10T12:27:27.043Z,33.02
2023-04-10T12:28:27.027Z,32.24
2023-04-10T12:29:27.033Z,32.20
2023-04-10T12:30:26.991Z,32.71
2023-04-10T12:31:26.981Z,33.11
2023-04-10T12:32:27.009Z,33.22
2023-04-10T12:33:26.962Z,33.03
2023-04-10T12:34:26.921Z,33.87
2023-04-10T12:35:27.013Z,33.87
2023-04-10T12:36:26.922Z,34.17
2023-04-10T12:37:26.923Z,34.17
2023-04-10T12:38:26.885Z,34.27
2023-04-10T12:39:26.933Z,34.16
2023-04-10T12:40:26.910Z,34.56
2023-04-10T12:41:26.874Z,34.25
2023-04-10T12:42:26.826Z,34.27
2023-04-10T12:43:26.843Z,34.88
2023-04-10T12:44:26.841Z,35.10
2023-04-10T12:45:26.841Z,33.68
2023-04-10T12:46:26.926Z,33.29
2023-04-10T12:47:26.858Z,33.50
2023-04-10T12:48:26.775Z,33.50
2023-04-10T12:49:26.796Z,34.10
2023-04-10T12:50:26.784Z,33.19
2023-04-10T12:51:26.793Z,34.10
2023-04-10T12:52:26.780Z,34.62